Tetide — IVTN — position and weather

sailwx.info

Track history (hours):
 
Tides and Currents Weather Stations Pressure Air Temp Water Temp Dewpoint Dewpoint Depression Visibility Wind Speed Wind Dir Waves Ship Positions

Tetide

Last reported at 2015-Mar-30 15:32 UTC. Time now 2015-Mar-30 17:34 UTC.
Position N 41°15' E 013°37'.

Length 70 m; draft 3.6 m.

Type: Passenger vessel. MMSI: 247043100.

Date/timePositionNaut miles runAvg speedWind from/ knotsBaromVisibWave heightAir tempDewpointWater temp
2015-Mar-30 15:32N 41°15' E 013°37'12 9.0
2015-Mar-30 14:10N 41°03' E 013°32'914.6
2015-Mar-30 13:33N 40°55' E 013°29'7 1.8
2015-Mar-30 09:32N 40°48' E 013°26'1212.4
2015-Mar-30 08:32N 40°60' E 013°31'16 2.5
2015-Mar-30 02:06N 41°15' E 013°37'0 0.0
2015-Mar-30 00:29N 41°15' E 013°37'14 1.5
2015-Mar-29 15:32N 41°02' E 013°32'15 7.3
2015-Mar-29 13:30N 40°48' E 013°26'0 0.0
2015-Mar-29 12:15N 40°48' E 013°26'0 0.0
2015-Mar-29 10:32N 40°48' E 013°26'10 8.8
2015-Mar-29 09:25N 40°57' E 013°29'1314.3
2015-Mar-29 08:31N 41°10' E 013°35'4 4.1
2015-Mar-29 07:28N 41°14' E 013°37'1414.5
2015-Mar-29 06:29N 41°05' E 013°22'21 1.8
2015-Mar-28 19:08N 40°54' E 012°58'814.3
2015-Mar-28 18:34N 40°58' E 013°08'1514.3
2015-Mar-28 17:32N 41°07' E 013°24'1313.0
2015-Mar-28 16:32N 41°15' E 013°37'7 6.5
2015-Mar-28 15:32N 41°09' E 013°35'1414.7
2015-Mar-28 14:34N 40°55' E 013°29'8 7.8
2015-Mar-28 13:33N 40°48' E 013°26'0 0.0
2015-Mar-28 12:32N 40°48' E 013°26'0 0.0
2015-Mar-28 11:33N 40°48' E 013°26'0 0.0
2015-Mar-28 10:31N 40°48' E 013°26'1111.5
2015-Mar-28 09:33N 40°59' E 013°30'17 8.7
2015-Mar-28 07:33N 41°15' E 013°37'0 0.0
2015-Mar-28 01:17N 41°15' E 013°37'0 0.0
2015-Mar-27 19:33N 41°15' E 013°37'0 0.0
2015-Mar-27 18:28N 41°15' E 013°37'23 5.7
2015-Mar-27 14:27N 40°54' E 013°26'6 1.9
2015-Mar-27 11:25N 40°48' E 013°26'0 0.0
2015-Mar-27 10:32N 40°48' E 013°26'1812.9
2015-Mar-27 09:09N 41°05' E 013°32'1112.6
2015-Mar-27 08:18N 41°15' E 013°37'13 6.3
2015-Mar-27 06:15N 41°06' E 013°25'7 0.5
2015-Mar-26 15:31N 41°08' E 013°35'1414.4
2015-Mar-26 14:33N 40°55' E 013°29'7 6.9
2015-Mar-26 13:32N 40°48' E 013°26'0 0.0
2015-Mar-26 11:24N 40°48' E 013°26'0 0.0
2015-Mar-26 10:33N 40°48' E 013°26'1212.3
2015-Mar-26 09:33N 40°60' E 013°31'16 1.5
2015-Mar-25 22:33N 41°15' E 013°37'0 0.0
2015-Mar-25 21:30N 41°15' E 013°37'0 0.0
2015-Mar-25 20:12N 41°15' E 013°37'0 0.0
2015-Mar-25 19:31N 41°15' E 013°37'0 0.0
2015-Mar-25 17:07N 41°15' E 013°37'0 0.0
2015-Mar-25 16:19N 41°15' E 013°37'1010.1
2015-Mar-25 15:22N 41°06' E 013°35'1114.1
2015-Mar-25 14:33N 40°55' E 013°30'8 6.6
2015-Mar-25 13:23N 40°48' E 013°26'13 6.7
2015-Mar-25 11:32N 41°00' E 013°30'1312.4
2015-Mar-25 10:28N 41°12' E 013°36'3 2.8
2015-Mar-25 09:13N 41°10' E 013°33'6 0.4
2015-Mar-24 16:17N 41°15' E 013°37'7 8.8
2015-Mar-24 15:32N 41°09' E 013°35'1414.6
2015-Mar-24 14:33N 40°55' E 013°29'8 6.7
2015-Mar-24 13:24N 40°48' E 013°26'0 0.0
2015-Mar-24 12:34N 40°48' E 013°26'0 0.0
2015-Mar-24 11:33N 40°48' E 013°26'0 0.0
2015-Mar-24 10:30N 40°48' E 013°26'1413.6
2015-Mar-24 09:29N 41°01' E 013°31'15 0.9
2015-Mar-23 16:24N 41°15' E 013°37'8 8.2
2015-Mar-23 15:26N 41°08' E 013°35'1314.5
2015-Mar-23 14:33N 40°56' E 013°29'8 7.8
2015-Mar-23 13:32N 40°48' E 013°26'0 0.0
2015-Mar-23 12:29N 40°48' E 013°26'0 0.0
2015-Mar-23 11:30N 40°48' E 013°26'0 0.0
2015-Mar-23 10:26N 40°48' E 013°26'1112.5
2015-Mar-23 09:32N 40°59' E 013°30'17 7.5
2015-Mar-23 07:13N 41°15' E 013°37'21 1.3
2015-Mar-22 14:33N 40°55' E 013°28'7 7.2
2015-Mar-22 13:31N 40°48' E 013°26'0 0.0
2015-Mar-22 12:08N 40°48' E 013°26'0 0.0
2015-Mar-22 11:32N 40°48' E 013°26'0 0.0
2015-Mar-22 10:32N 40°48' E 013°26'1111.0
2015-Mar-22 09:30N 40°59' E 013°30'1614.6
2015-Mar-22 08:23N 41°14' E 013°37'1 1.1
2015-Mar-22 07:27N 41°15' E 013°37'0 0.0
2015-Mar-21 16:16N 41°15' E 013°37'1110.3
2015-Mar-21 15:11N 41°05' E 013°33'914.6
2015-Mar-21 14:34N 40°56' E 013°29'8 7.6
2015-Mar-21 13:29N 40°48' E 013°26'0 0.0
2015-Mar-21 12:25N 40°48' E 013°26'0 0.0
2015-Mar-21 11:29N 40°48' E 013°26'0 0.0
2015-Mar-21 10:31N 40°48' E 013°26'1211.3
2015-Mar-21 09:27N 40°60' E 013°30'1614.6
2015-Mar-21 08:22N 41°15' E 013°37'0 0.3
2015-Mar-21 07:06N 41°15' E 013°37'  
Track history (hours):
 
Tides and Currents Weather Stations Pressure Air Temp Water Temp Dewpoint Dewpoint Depression Visibility Wind Speed Wind Dir Waves Ship Positions

Tetide

Last reported at 2015-Mar-30 15:32 UTC. Time now 2015-Mar-30 17:34 UTC.
Position N 41°15' E 013°37'.

Length 70 m; draft 3.6 m.

Type: Passenger vessel. MMSI: 247043100.

Date/timePositionNaut miles runAvg speedWind from/ knotsBaromVisibWave heightAir tempDewpointWater temp
2015-Mar-30 15:32N 41°15' E 013°37'12 9.0
2015-Mar-30 14:10N 41°03' E 013°32'914.6
2015-Mar-30 13:33N 40°55' E 013°29'7 1.8
2015-Mar-30 09:32N 40°48' E 013°26'1212.4
2015-Mar-30 08:32N 40°60' E 013°31'16 2.5
2015-Mar-30 02:06N 41°15' E 013°37'0 0.0
2015-Mar-30 00:29N 41°15' E 013°37'14 1.5
2015-Mar-29 15:32N 41°02' E 013°32'15 7.3
2015-Mar-29 13:30N 40°48' E 013°26'0 0.0
2015-Mar-29 12:15N 40°48' E 013°26'0 0.0
2015-Mar-29 10:32N 40°48' E 013°26'10 8.8
2015-Mar-29 09:25N 40°57' E 013°29'1314.3
2015-Mar-29 08:31N 41°10' E 013°35'4 4.1
2015-Mar-29 07:28N 41°14' E 013°37'1414.5
2015-Mar-29 06:29N 41°05' E 013°22'21 1.8
2015-Mar-28 19:08N 40°54' E 012°58'814.3
2015-Mar-28 18:34N 40°58' E 013°08'1514.3
2015-Mar-28 17:32N 41°07' E 013°24'1313.0
2015-Mar-28 16:32N 41°15' E 013°37'7 6.5
2015-Mar-28 15:32N 41°09' E 013°35'1414.7
2015-Mar-28 14:34N 40°55' E 013°29'8 7.8
2015-Mar-28 13:33N 40°48' E 013°26'0 0.0
2015-Mar-28 12:32N 40°48' E 013°26'0 0.0
2015-Mar-28 11:33N 40°48' E 013°26'0 0.0
2015-Mar-28 10:31N 40°48' E 013°26'1111.5
2015-Mar-28 09:33N 40°59' E 013°30'17 8.7
2015-Mar-28 07:33N 41°15' E 013°37'0 0.0
2015-Mar-28 01:17N 41°15' E 013°37'0 0.0
2015-Mar-27 19:33N 41°15' E 013°37'0 0.0
2015-Mar-27 18:28N 41°15' E 013°37'23 5.7
2015-Mar-27 14:27N 40°54' E 013°26'6 1.9
2015-Mar-27 11:25N 40°48' E 013°26'0 0.0
2015-Mar-27 10:32N 40°48' E 013°26'1812.9
2015-Mar-27 09:09N 41°05' E 013°32'1112.6
2015-Mar-27 08:18N 41°15' E 013°37'13 6.3
2015-Mar-27 06:15N 41°06' E 013°25'7 0.5
2015-Mar-26 15:31N 41°08' E 013°35'1414.4
2015-Mar-26 14:33N 40°55' E 013°29'7 6.9
2015-Mar-26 13:32N 40°48' E 013°26'0 0.0
2015-Mar-26 11:24N 40°48' E 013°26'0 0.0
2015-Mar-26 10:33N 40°48' E 013°26'1212.3
2015-Mar-26 09:33N 40°60' E 013°31'16 1.5
2015-Mar-25 22:33N 41°15' E 013°37'0 0.0
2015-Mar-25 21:30N 41°15' E 013°37'0 0.0
2015-Mar-25 20:12N 41°15' E 013°37'0 0.0
2015-Mar-25 19:31N 41°15' E 013°37'0 0.0
2015-Mar-25 17:07N 41°15' E 013°37'0 0.0
2015-Mar-25 16:19N 41°15' E 013°37'1010.1
2015-Mar-25 15:22N 41°06' E 013°35'1114.1
2015-Mar-25 14:33N 40°55' E 013°30'8 6.6
2015-Mar-25 13:23N 40°48' E 013°26'13 6.7
2015-Mar-25 11:32N 41°00' E 013°30'1312.4
2015-Mar-25 10:28N 41°12' E 013°36'3 2.8
2015-Mar-25 09:13N 41°10' E 013°33'6 0.4
2015-Mar-24 16:17N 41°15' E 013°37'7 8.8
2015-Mar-24 15:32N 41°09' E 013°35'1414.6
2015-Mar-24 14:33N 40°55' E 013°29'8 6.7
2015-Mar-24 13:24N 40°48' E 013°26'0 0.0
2015-Mar-24 12:34N 40°48' E 013°26'0 0.0
2015-Mar-24 11:33N 40°48' E 013°26'0 0.0
2015-Mar-24 10:30N 40°48' E 013°26'1413.6
2015-Mar-24 09:29N 41°01' E 013°31'15 0.9
2015-Mar-23 16:24N 41°15' E 013°37'8 8.2
2015-Mar-23 15:26N 41°08' E 013°35'1314.5
2015-Mar-23 14:33N 40°56' E 013°29'8 7.8
2015-Mar-23 13:32N 40°48' E 013°26'0 0.0
2015-Mar-23 12:29N 40°48' E 013°26'0 0.0
2015-Mar-23 11:30N 40°48' E 013°26'0 0.0
2015-Mar-23 10:26N 40°48' E 013°26'1112.5
2015-Mar-23 09:32N 40°59' E 013°30'17 7.5
2015-Mar-23 07:13N 41°15' E 013°37'21 1.3
2015-Mar-22 14:33N 40°55' E 013°28'7 7.2
2015-Mar-22 13:31N 40°48' E 013°26'0 0.0
2015-Mar-22 12:08N 40°48' E 013°26'0 0.0
2015-Mar-22 11:32N 40°48' E 013°26'0 0.0
2015-Mar-22 10:32N 40°48' E 013°26'1111.0
2015-Mar-22 09:30N 40°59' E 013°30'1614.6
2015-Mar-22 08:23N 41°14' E 013°37'1 1.1
2015-Mar-22 07:27N 41°15' E 013°37'0 0.0
2015-Mar-21 16:16N 41°15' E 013°37'1110.3
2015-Mar-21 15:11N 41°05' E 013°33'914.6
2015-Mar-21 14:34N 40°56' E 013°29'8 7.6
2015-Mar-21 13:29N 40°48' E 013°26'0 0.0
2015-Mar-21 12:25N 40°48' E 013°26'0 0.0
2015-Mar-21 11:29N 40°48' E 013°26'0 0.0
2015-Mar-21 10:31N 40°48' E 013°26'1211.3
2015-Mar-21 09:27N 40°60' E 013°30'1614.6
2015-Mar-21 08:22N 41°15' E 013°37'0 0.3
2015-Mar-21 07:06N 41°15' E 013°37'  

Dump ship's entire track history